createdAt,value
2018-05-08T00:00:05.474Z,45
2018-05-08T00:15:04.563Z,44
2018-05-08T00:30:05.005Z,45
2018-05-08T00:45:05.032Z,45
2018-05-08T01:00:04.851Z,44
2018-05-08T01:15:05.601Z,44
2018-05-08T01:30:05.029Z,44
2018-05-08T01:45:04.803Z,45
2018-05-08T02:00:05.573Z,44
2018-05-08T02:15:05.555Z,44
2018-05-08T02:30:05.453Z,44
2018-05-08T02:45:04.622Z,44
2018-05-08T03:00:05.391Z,44
2018-05-08T03:15:04.510Z,44
2018-05-08T03:30:04.936Z,44
2018-05-08T03:45:05.075Z,45
2018-05-08T04:00:05.427Z,46
2018-05-08T04:15:04.844Z,48
2018-05-08T04:30:04.769Z,52
2018-05-08T04:45:05.254Z,50
2018-05-08T05:00:05.285Z,47
2018-05-08T05:15:04.674Z,51
2018-05-08T05:30:04.919Z,49
2018-05-08T05:45:04.392Z,49
2018-05-08T06:00:04.561Z,48
2018-05-08T06:15:04.662Z,52
2018-05-08T06:30:05.333Z,52
2018-05-08T06:45:04.795Z,51
2018-05-08T07:00:05.287Z,48
2018-05-08T07:15:05.226Z,50
2018-05-08T07:30:04.724Z,48
2018-05-08T07:45:04.962Z,49
2018-05-08T08:00:04.393Z,50
2018-05-08T08:15:04.932Z,51
2018-05-08T08:30:04.645Z,51
2018-05-08T08:45:04.631Z,54
2018-05-08T09:00:04.598Z,55
2018-05-08T09:15:04.566Z,53
2018-05-08T09:30:04.806Z,53
2018-05-08T09:45:05.322Z,54
2018-05-08T10:00:05.246Z,55
2018-05-08T10:15:04.839Z,54
2018-05-08T10:30:05.063Z,52
2018-05-08T10:45:04.592Z,55
2018-05-08T11:00:05.079Z,52
2018-05-08T11:15:04.601Z,52
2018-05-08T11:30:04.742Z,53
2018-05-08T11:45:05.299Z,54
2018-05-08T12:00:05.241Z,53
2018-05-08T12:15:05.165Z,53
2018-05-08T12:30:05.297Z,52
2018-05-08T12:45:04.743Z,53
2018-05-08T13:00:05.179Z,54
2018-05-08T13:15:04.611Z,51
2018-05-08T13:30:05.241Z,58
2018-05-08T13:45:05.296Z,51
2018-05-08T14:00:04.783Z,53
2018-05-08T14:15:05.317Z,55
2018-05-08T14:30:05.052Z,59
2018-05-08T14:45:04.528Z,55
2018-05-08T15:00:04.990Z,54
2018-05-08T15:15:04.974Z,61
2018-05-08T15:30:05.166Z,54
2018-05-08T15:45:05.268Z,53
2018-05-08T16:00:05.346Z,54
2018-05-08T16:15:05.432Z,57
2018-05-08T16:30:04.789Z,58
2018-05-08T16:45:04.400Z,54
2018-05-08T17:00:04.573Z,54
2018-05-08T17:15:04.655Z,52
2018-05-08T17:30:05.175Z,52
2018-05-08T17:45:05.269Z,57
2018-05-08T18:00:05.074Z,53
2018-05-08T18:15:05.011Z,55
2018-05-08T18:30:05.295Z,50
2018-05-08T18:45:05.242Z,53
2018-05-08T19:00:04.777Z,52
2018-05-08T19:15:05.242Z,50
2018-05-08T19:30:04.420Z,52
2018-05-08T19:45:04.560Z,53
2018-05-08T20:00:05.037Z,53
2018-05-08T20:15:05.089Z,53
2018-05-08T20:30:04.761Z,54
2018-05-08T20:45:04.733Z,52
2018-05-08T21:00:04.678Z,52
2018-05-08T21:15:04.656Z,47
2018-05-08T21:30:04.406Z,52
2018-05-08T21:45:04.854Z,47
2018-05-08T22:00:04.948Z,45
2018-05-08T22:15:04.625Z,46
2018-05-08T22:30:05.072Z,46
2018-05-08T22:45:05.156Z,47
2018-05-08T23:00:04.649Z,47
2018-05-08T23:15:04.654Z,46
2018-05-08T23:30:04.973Z,46
2018-05-08T23:45:04.707Z,45
